Time,TemperatureF,DewpointF,PressureIn,WindDirection,WindDirectionDegrees,WindSpeedMPH,WindSpeedGustMPH,Humidity,HourlyPrecipIn,Conditions,Clouds,dailyrainin,SoftwareType,DateUTC
2013-01-29 00:10:00,19.8,15.2,30.00,NW,318,0.0,0.0,82,0.00,BKN,BKN,0.00,WeatherDisplay:10.37,2013-01-29 05:10:00,
2013-01-29 00:20:00,19.6,15.0,29.99,NW,308,0.0,0.0,82,0.00,BKN,BKN,0.00,WeatherDisplay:10.37,2013-01-29 05:20:00,
2013-01-29 00:30:00,19.6,15.0,29.99,NW,317,0.0,0.0,82,0.00,BKN,BKN,0.00,WeatherDisplay:10.37,2013-01-29 05:30:00,
2013-01-29 00:40:00,19.1,14.5,29.99,NW,311,0.0,0.0,82,0.00,BKN,BKN,0.00,WeatherDisplay:10.37,2013-01-29 05:40:00,
2013-01-29 00:50:00,19.4,14.8,29.99,WNW,282,0.0,0.0,82,0.00,BKN,BKN,0.00,WeatherDisplay:10.37,2013-01-29 05:50:00,
2013-01-29 01:10:00,19.9,15.3,29.99,WNW,298,0.0,0.0,82,0.00,BKN,BKN,0.00,WeatherDisplay:10.37,2013-01-29 06:10:00,
2013-01-29 01:20:00,20.1,15.2,29.99,NW,326,0.0,0.0,81,0.00,BKN,BKN,0.00,WeatherDisplay:10.37,2013-01-29 06:20:00,
2013-01-29 01:30:00,20.3,15.7,29.99,NW,313,0.0,0.0,82,0.00,BKN,BKN,0.00,WeatherDisplay:10.37,2013-01-29 06:30:00,
2013-01-29 01:40:00,20.7,15.8,30.00,NW,304,0.0,0.0,81,0.00,BKN,BKN,0.00,WeatherDisplay:10.37,2013-01-29 06:40:00,
2013-01-29 01:50:00,20.8,15.9,30.01,NW,304,0.0,0.0,81,0.00,BKN,BKN,0.00,WeatherDisplay:10.37,2013-01-29 06:50:00,
2013-01-29 02:00:00,20.3,15.4,30.01,NW,310,0.0,0.0,81,0.00,BKN,BKN,0.00,WeatherDisplay:10.37,2013-01-29 07:00:00,
2013-01-29 02:10:00,20.3,15.4,29.99,NW,326,0.0,0.0,81,0.00,BKN,BKN,0.00,WeatherDisplay:10.37,2013-01-29 07:10:00,
2013-01-29 02:20:00,20.3,15.4,30.00,NW,326,0.0,0.0,81,0.00,BKN,BKN,0.00,WeatherDisplay:10.37,2013-01-29 07:20:00,
2013-01-29 02:30:00,20.1,15.2,30.01,NW,326,0.0,0.0,81,0.00,BKN,BKN,0.00,WeatherDisplay:10.37,2013-01-29 07:30:00,
2013-01-29 02:40:00,20.5,15.6,30.02,NW,317,0.0,0.0,81,0.00,BKN,BKN,0.00,WeatherDisplay:10.37,2013-01-29 07:40:00,
2013-01-29 02:50:00,20.7,15.7,30.02,NW,304,0.0,0.0,81,0.00,BKN,BKN,0.00,WeatherDisplay:10.37,2013-01-29 07:50:00,
2013-01-29 03:00:00,20.6,15.7,30.01,NW,304,0.0,0.0,81,0.00,BKN,BKN,0.00,WeatherDisplay:10.37,2013-01-29 08:00:00,
2013-01-29 03:10:00,20.8,15.9,30.01,NW,304,0.0,0.0,81,0.00,BKN,BKN,0.00,WeatherDisplay:10.37,2013-01-29 08:10:00,
2013-01-29 03:20:00,20.8,15.6,30.01,NW,304,0.0,0.0,80,0.00,BKN,BKN,0.00,WeatherDisplay:10.37,2013-01-29 08:20:00,
2013-01-29 03:30:00,20.8,15.6,30.02,NW,304,0.0,0.0,80,0.00,BKN,BKN,0.00,WeatherDisplay:10.37,2013-01-29 08:30:00,
2013-01-29 03:40:00,20.7,15.8,30.03,NW,304,0.0,0.0,81,0.00,BKN,BKN,0.00,WeatherDisplay:10.37,2013-01-29 08:40:00,
2013-01-29 03:50:00,20.8,15.6,30.02,NW,304,0.0,0.0,80,0.00,BKN,BKN,0.00,WeatherDisplay:10.37,2013-01-29 08:50:00,
2013-01-29 04:00:00,20.8,15.6,30.02,West,270,0.0,0.0,80,0.00,BKN,BKN,0.00,WeatherDisplay:10.37,2013-01-29 09:00:00,
2013-01-29 04:10:00,20.3,15.1,30.01,NW,324,0.0,0.0,80,0.00,BKN,BKN,0.00,WeatherDisplay:10.37,2013-01-29 09:10:00,
2013-01-29 04:20:00,20.3,15.4,30.03,NW,307,0.0,0.0,81,0.00,BKN,BKN,0.00,WeatherDisplay:10.37,2013-01-29 09:20:00,
2013-01-29 04:30:00,20.1,14.9,30.04,NW,304,0.0,0.0,80,0.00,BKN,BKN,0.00,WeatherDisplay:10.37,2013-01-29 09:30:00,
2013-01-29 04:40:00,19.9,15.0,30.03,NW,304,0.0,0.0,81,0.00,BKN,BKN,0.00,WeatherDisplay:10.37,2013-01-29 09:40:00,
2013-01-29 04:50:00,19.9,15.0,30.03,NW,304,0.0,0.0,81,0.00,BKN,BKN,0.00,WeatherDisplay:10.37,2013-01-29 09:50:00,
2013-01-29 05:00:00,19.9,14.8,30.03,NW,304,0.0,0.0,80,0.00,BKN,BKN,0.00,WeatherDisplay:10.37,2013-01-29 10:00:00,
2013-01-29 05:10:00,19.8,14.9,30.03,NW,304,0.0,0.0,81,0.00,BKN,BKN,0.00,WeatherDisplay:10.37,2013-01-29 10:10:00,
2013-01-29 05:20:00,19.4,14.2,30.04,NW,304,0.0,0.0,80,0.00,BKN,BKN,0.00,WeatherDisplay:10.37,2013-01-29 10:20:00,
2013-01-29 05:30:00,18.9,14.0,30.04,NW,304,0.0,0.0,81,0.00,BKN,BKN,0.00,WeatherDisplay:10.37,2013-01-29 10:30:00,
2013-01-29 05:40:00,18.9,14.0,30.03,NW,304,0.0,0.0,81,0.00,BKN,BKN,0.00,WeatherDisplay:10.37,2013-01-29 10:40:00,
2013-01-29 05:50:00,18.3,13.2,30.03,NW,304,0.0,0.0,80,0.00,BKN,BKN,0.00,WeatherDisplay:10.37,2013-01-29 10:50:00,
2013-01-29 06:00:00,17.6,12.5,30.05,NW,304,0.0,0.0,80,0.00,BKN,BKN,0.00,WeatherDisplay:10.37,2013-01-29 11:00:00,
2013-01-29 06:10:00,17.6,12.8,30.06,NW,304,0.0,0.0,81,0.00,BKN,BKN,0.00,WeatherDisplay:10.37,2013-01-29 11:10:00,
2013-01-29 06:20:00,17.6,13.0,30.05,NW,304,0.0,0.0,82,0.00,BKN,BKN,0.00,WeatherDisplay:10.37,2013-01-29 11:20:00,
2013-01-29 06:30:00,17.6,13.3,30.05,WNW,299,0.0,0.0,83,0.00,BKN,BKN,0.00,WeatherDisplay:10.37,2013-01-29 11:30:00,
2013-01-29 06:40:00,17.6,13.6,30.07,WNW,298,0.0,0.0,84,0.00,BKN,BKN,0.00,WeatherDisplay:10.37,2013-01-29 11:40:00,
2013-01-29 06:50:00,17.6,13.9,30.09,NW,304,0.0,0.0,85,0.00,BKN,BKN,0.00,WeatherDisplay:10.37,2013-01-29 11:50:00,
2013-01-29 07:00:00,17.7,14.0,30.09,NW,308,0.0,0.0,85,0.00,BKN,BKN,0.00,WeatherDisplay:10.37,2013-01-29 12:00:00,
2013-01-29 07:10:00,17.6,13.3,30.07,NW,308,0.0,0.0,83,0.00,BKN,BKN,0.00,WeatherDisplay:10.37,2013-01-29 12:10:00,
2013-01-29 07:20:00,17.2,12.7,30.06,WNW,291,0.0,0.0,82,0.00,BKN,BKN,0.00,WeatherDisplay:10.37,2013-01-29 12:20:00,
2013-01-29 07:30:00,17.1,12.2,30.07,SW,225,0.0,0.0,81,0.00,BKN,BKN,0.00,WeatherDisplay:10.37,2013-01-29 12:30:00,
2013-01-29 07:40:00,17.2,12.4,30.10,SW,214,0.0,0.0,81,0.00,BKN,BKN,0.00,WeatherDisplay:10.37,2013-01-29 12:40:00,
2013-01-29 07:50:00,17.2,12.4,30.11,SW,214,0.0,0.0,81,0.00,BKN,BKN,0.00,WeatherDisplay:10.37,2013-01-29 12:50:00,
2013-01-29 08:00:00,17.2,12.4,30.09,SW,214,0.0,0.0,81,0.00,BKN,BKN,0.00,WeatherDisplay:10.37,2013-01-29 13:00:00,
2013-01-29 08:10:00,17.7,12.8,30.09,SW,214,0.0,0.0,81,0.00,BKN,BKN,0.00,WeatherDisplay:10.37,2013-01-29 13:10:00,
2013-01-29 08:20:00,18.8,13.7,30.10,SW,214,0.0,0.0,80,0.00,BKN,BKN,0.00,WeatherDisplay:10.37,2013-01-29 13:20:00,
2013-01-29 08:30:00,19.8,14.6,30.09,WSW,258,0.0,0.0,80,0.00,BKN,BKN,0.00,WeatherDisplay:10.37,2013-01-29 13:30:00,
2013-01-29 08:40:00,20.7,15.5,30.10,SW,236,0.0,0.0,80,0.00,BKN,BKN,0.00,WeatherDisplay:10.37,2013-01-29 13:40:00,
2013-01-29 08:50:00,21.7,16.2,30.10,SW,236,0.0,0.0,79,0.00,BKN,BKN,0.00,WeatherDisplay:10.37,2013-01-29 13:50:00,
2013-01-29 09:00:00,21.9,16.3,30.10,NW,318,0.0,0.0,79,0.00,BKN,BKN,0.00,WeatherDisplay:10.37,2013-01-29 14:00:00,
2013-01-29 09:10:00,22.5,16.6,30.10,NW,304,0.0,0.0,78,0.00,BKN,BKN,0.00,WeatherDisplay:10.37,2013-01-29 14:10:00,
2013-01-29 09:20:00,22.6,16.8,30.11,WNW,303,0.0,0.0,78,0.00,BKN,BKN,0.00,WeatherDisplay:10.37,2013-01-29 14:20:00,
2013-01-29 09:30:00,23.4,17.6,30.11,NW,304,0.0,0.0,78,0.00,BKN,BKN,0.00,WeatherDisplay:10.37,2013-01-29 14:30:00,
2013-01-29 09:40:00,24.2,18.1,30.11,NNW,334,0.0,0.0,77,0.00,BKN,BKN,0.00,WeatherDisplay:10.37,2013-01-29 14:40:00,
2013-01-29 09:50:00,24.4,17.6,30.11,NNW,342,1.0,0.0,75,0.00,BKN,BKN,0.00,WeatherDisplay:10.37,2013-01-29 14:50:00,
2013-01-29 10:00:00,24.4,17.3,30.11,NW,321,0.0,0.0,74,0.00,BKN,BKN,0.00,WeatherDisplay:10.37,2013-01-29 15:00:00,
2013-01-29 10:10:00,24.4,17.3,30.11,NW,320,0.0,0.0,74,0.00,BKN,BKN,0.00,WeatherDisplay:10.37,2013-01-29 15:10:00,
2013-01-29 10:20:00,25.1,18.3,30.12,NNW,327,0.0,0.0,75,0.00,BKN,BKN,0.00,WeatherDisplay:10.37,2013-01-29 15:20:00,
2013-01-29 10:30:00,26.0,18.9,30.13,North,349,0.0,0.0,74,0.00,BKN,BKN,0.00,WeatherDisplay:10.37,2013-01-29 15:30:00,
2013-01-29 10:40:00,26.1,18.6,30.15,NNW,344,0.0,0.0,73,0.00,BKN,BKN,0.00,WeatherDisplay:10.37,2013-01-29 15:40:00,
2013-01-29 10:50:00,26.8,19.6,30.17,NNW,329,0.0,0.0,74,0.00,BKN,BKN,0.00,WeatherDisplay:10.37,2013-01-29 15:50:00,
2013-01-29 11:00:00,27.6,20.4,30.17,North,1,6.0,0.0,74,0.00,BKN,BKN,0.00,WeatherDisplay:10.37,2013-01-29 16:00:00,
2013-01-29 11:10:00,28.0,20.8,30.17,North,3,0.0,0.0,74,0.00,BKN,BKN,0.00,WeatherDisplay:10.37,2013-01-29 16:10:00,
2013-01-29 11:20:00,28.5,20.9,30.16,NNW,338,0.0,0.0,73,0.00,BKN,BKN,0.00,WeatherDisplay:10.37,2013-01-29 16:20:00,
2013-01-29 11:30:00,28.9,21.0,30.15,NNW,327,0.0,0.0,72,0.00,BKN,BKN,0.00,WeatherDisplay:10.37,2013-01-29 16:30:00,
2013-01-29 11:40:00,28.7,21.2,30.16,NW,316,0.0,0.0,73,0.00,BKN,BKN,0.00,WeatherDisplay:10.37,2013-01-29 16:40:00,
2013-01-29 11:50:00,28.9,21.4,30.15,NNW,327,0.0,0.0,73,0.00,BKN,BKN,0.00,WeatherDisplay:10.37,2013-01-29 16:50:00,
2013-01-29 12:00:00,29.5,21.9,30.14,North,354,0.0,0.0,73,0.00,BKN,BKN,0.00,WeatherDisplay:10.37,2013-01-29 17:00:00,
2013-01-29 12:10:00,29.7,22.1,30.14,NNE,33,0.0,0.0,73,0.00,BKN,BKN,0.00,WeatherDisplay:10.37,2013-01-29 17:10:00,
2013-01-29 12:20:00,30.1,22.8,30.13,NNE,27,0.0,0.0,74,0.01,RA,RA,0.01,WeatherDisplay:10.37,2013-01-29 17:20:00,
2013-01-29 12:30:00,29.8,22.5,30.14,NNE,27,0.0,0.0,74,0.00,BKN,BKN,0.01,WeatherDisplay:10.37,2013-01-29 17:30:00,
2013-01-29 12:40:00,29.8,22.6,30.14,NW,304,0.0,0.0,74,0.00,BKN,BKN,0.01,WeatherDisplay:10.37,2013-01-29 17:40:00,
2013-01-29 12:50:00,30.2,22.9,30.14,WNW,300,0.0,0.0,74,0.00,BKN,BKN,0.01,WeatherDisplay:10.37,2013-01-29 17:50:00,
2013-01-29 13:00:00,30.7,23.8,30.13,SSW,192,0.0,0.0,75,0.00,BKN,BKN,0.01,WeatherDisplay:10.37,2013-01-29 18:00:00,
2013-01-29 13:10:00,31.2,23.9,30.12,SSW,192,0.0,0.0,74,0.00,BKN,BKN,0.01,WeatherDisplay:10.37,2013-01-29 18:10:00,
2013-01-29 13:20:00,31.6,24.6,30.12,South,175,0.0,0.0,75,0.00,BKN,BKN,0.01,WeatherDisplay:10.37,2013-01-29 18:20:00,
2013-01-29 13:30:00,31.5,24.1,30.11,SSW,192,0.0,0.0,74,0.01,RA,RA,0.02,WeatherDisplay:10.37,2013-01-29 18:30:00,
2013-01-29 13:40:00,31.4,24.0,30.13,SSW,192,0.0,0.0,74,0.00,BKN,BKN,0.02,WeatherDisplay:10.37,2013-01-29 18:40:00,
2013-01-29 13:50:00,31.6,24.9,30.12,South,184,0.0,0.0,76,0.00,BKN,BKN,0.02,WeatherDisplay:10.37,2013-01-29 18:50:00,
2013-01-29 14:00:00,31.4,24.8,30.12,SE,124,0.0,0.0,76,0.00,BKN,BKN,0.02,WeatherDisplay:10.37,2013-01-29 19:00:00,
2013-01-29 14:10:00,30.7,24.1,30.12,SE,143,0.0,0.0,76,0.00,BKN,BKN,0.02,WeatherDisplay:10.37,2013-01-29 19:10:00,
2013-01-29 14:20:00,30.9,24.9,30.11,SE,146,0.0,0.0,78,0.01,RA,RA,0.03,WeatherDisplay:10.37,2013-01-29 19:20:00,
2013-01-29 14:30:00,31.2,25.2,30.11,SE,146,0.0,0.0,78,0.00,BKN,BKN,0.03,WeatherDisplay:10.37,2013-01-29 19:30:00,
2013-01-29 14:40:00,30.9,25.2,30.11,ENE,68,0.0,0.0,79,0.00,BKN,BKN,0.03,WeatherDisplay:10.37,2013-01-29 19:40:00,
2013-01-29 14:50:00,31.1,25.3,30.12,East,79,0.0,0.0,79,0.00,BKN,BKN,0.03,WeatherDisplay:10.37,2013-01-29 19:50:00,
2013-01-29 15:00:00,30.7,25.0,30.12,East,100,0.0,0.0,79,0.00,BKN,BKN,0.03,WeatherDisplay:10.37,2013-01-29 20:00:00,
2013-01-29 15:10:00,30.7,25.3,30.12,SE,124,0.0,0.0,80,0.00,BKN,BKN,0.03,WeatherDisplay:10.37,2013-01-29 20:10:00,
2013-01-29 15:20:00,30.6,25.1,30.12,SE,124,0.0,0.0,80,0.00,BKN,BKN,0.03,WeatherDisplay:10.37,2013-01-29 20:20:00,
2013-01-29 15:30:00,30.4,25.2,30.12,SE,140,0.0,0.0,81,0.00,BKN,BKN,0.03,WeatherDisplay:10.37,2013-01-29 20:30:00,
2013-01-29 15:40:00,30.4,25.3,30.12,SE,145,0.0,0.0,81,0.00,BKN,BKN,0.03,WeatherDisplay:10.37,2013-01-29 20:40:00,
2013-01-29 15:50:00,30.4,25.5,30.11,SE,130,0.0,0.0,82,0.00,BKN,BKN,0.03,WeatherDisplay:10.37,2013-01-29 20:50:00,
2013-01-29 16:00:00,30.1,25.3,30.12,SE,124,0.0,0.0,82,0.00,BKN,BKN,0.03,WeatherDisplay:10.37,2013-01-29 21:00:00,
2013-01-29 16:10:00,29.8,25.0,30.13,ESE,117,0.0,0.0,82,0.00,BKN,BKN,0.03,WeatherDisplay:10.37,2013-01-29 21:10:00,
2013-01-29 16:20:00,29.8,25.2,30.12,SE,139,1.0,0.0,83,0.00,BKN,BKN,0.03,WeatherDisplay:10.37,2013-01-29 21:20:00,
2013-01-29 16:30:00,29.7,25.1,30.12,SSE,148,0.0,0.0,83,0.00,BKN,BKN,0.03,WeatherDisplay:10.37,2013-01-29 21:30:00,
2013-01-29 16:40:00,29.5,25.0,30.11,SSE,150,0.0,0.0,83,0.00,BKN,BKN,0.03,WeatherDisplay:10.37,2013-01-29 21:40:00,
2013-01-29 16:50:00,29.7,25.1,30.12,ENE,70,0.0,0.0,83,0.00,BKN,BKN,0.03,WeatherDisplay:10.37,2013-01-29 21:50:00,
2013-01-29 17:00:00,29.7,25.4,30.14,East,100,0.0,0.0,84,0.00,BKN,BKN,0.03,WeatherDisplay:10.37,2013-01-29 22:00:00,
2013-01-29 17:10:00,29.7,25.4,30.13,ESE,102,0.0,0.0,84,0.00,BKN,BKN,0.03,WeatherDisplay:10.37,2013-01-29 22:10:00,
2013-01-29 17:20:00,29.7,25.4,30.13,ESE,102,2.0,0.0,84,0.00,BKN,BKN,0.03,WeatherDisplay:10.37,2013-01-29 22:20:00,
2013-01-29 17:30:00,29.7,25.4,30.14,ESE,102,0.0,0.0,84,0.00,BKN,BKN,0.03,WeatherDisplay:10.37,2013-01-29 22:30:00,
2013-01-29 17:40:00,29.7,25.4,30.13,ESE,116,0.0,0.0,84,0.00,BKN,BKN,0.03,WeatherDisplay:10.37,2013-01-29 22:40:00,
2013-01-29 17:50:00,29.7,25.4,30.13,ESE,117,0.0,0.0,84,0.00,BKN,BKN,0.03,WeatherDisplay:10.37,2013-01-29 22:50:00,
2013-01-29 18:00:00,29.8,25.9,30.12,ESE,102,0.0,0.0,85,0.00,BKN,BKN,0.03,WeatherDisplay:10.37,2013-01-29 23:00:00,
2013-01-29 18:10:00,29.7,25.7,30.13,ESE,102,0.0,0.0,85,0.00,BKN,BKN,0.03,WeatherDisplay:10.37,2013-01-29 23:10:00,
2013-01-29 18:20:00,29.7,25.7,30.13,ESE,102,0.0,0.0,85,0.00,BKN,BKN,0.03,WeatherDisplay:10.37,2013-01-29 23:20:00,
2013-01-29 18:30:00,29.8,25.9,30.14,SE,146,0.0,0.0,85,0.00,BKN,BKN,0.03,WeatherDisplay:10.37,2013-01-29 23:30:00,
2013-01-29 18:40:00,29.8,25.8,30.13,SSE,147,3.0,0.0,85,0.00,BKN,BKN,0.03,WeatherDisplay:10.37,2013-01-29 23:40:00,
2013-01-29 18:50:00,29.3,25.4,30.13,SSE,147,0.0,0.0,85,0.00,BKN,BKN,0.03,WeatherDisplay:10.37,2013-01-29 23:50:00,
2013-01-29 19:00:00,29.3,25.4,30.13,SE,146,0.0,0.0,85,0.00,BKN,BKN,0.03,WeatherDisplay:10.37,2013-01-30 00:00:00,
2013-01-29 19:10:00,29.7,25.7,30.12,ESE,103,1.0,0.0,85,0.00,BKN,BKN,0.03,WeatherDisplay:10.37,2013-01-30 00:10:00,
2013-01-29 19:20:00,29.4,25.4,30.11,ESE,117,0.0,0.0,85,0.00,BKN,BKN,0.03,WeatherDisplay:10.37,2013-01-30 00:20:00,
2013-01-29 19:30:00,29.6,25.6,30.11,SE,137,0.0,0.0,85,0.00,BKN,BKN,0.03,WeatherDisplay:10.37,2013-01-30 00:30:00,
2013-01-29 19:40:00,29.3,25.6,30.12,SE,138,0.0,0.0,86,0.00,BKN,BKN,0.03,WeatherDisplay:10.37,2013-01-30 00:40:00,
2013-01-29 19:50:00,29.3,25.6,30.13,SSE,163,0.0,0.0,86,0.00,BKN,BKN,0.03,WeatherDisplay:10.37,2013-01-30 00:50:00,
2013-01-29 20:00:00,29.3,25.6,30.13,South,169,0.0,0.0,86,0.00,BKN,BKN,0.03,WeatherDisplay:10.37,2013-01-30 01:00:00,
2013-01-29 20:10:00,29.1,25.5,30.13,SSE,163,0.0,0.0,86,0.00,BKN,BKN,0.03,WeatherDisplay:10.37,2013-01-30 01:10:00,
2013-01-29 20:20:00,29.3,25.6,30.13,SSE,160,0.0,0.0,86,0.00,BKN,BKN,0.03,WeatherDisplay:10.37,2013-01-30 01:20:00,
2013-01-29 20:30:00,29.7,26.0,30.13,SE,146,0.0,0.0,86,0.00,BKN,BKN,0.03,WeatherDisplay:10.37,2013-01-30 01:30:00,
2013-01-29 20:40:00,29.5,25.8,30.15,SE,146,0.0,0.0,86,0.00,BKN,BKN,0.03,WeatherDisplay:10.37,2013-01-30 01:40:00,
2013-01-29 20:50:00,29.6,25.9,30.14,SE,146,0.0,0.0,86,0.00,BKN,BKN,0.03,WeatherDisplay:10.37,2013-01-30 01:50:00,
2013-01-29 21:00:00,29.7,26.0,30.13,ESE,118,0.0,0.0,86,0.00,BKN,BKN,0.03,WeatherDisplay:10.37,2013-01-30 02:00:00,
2013-01-29 21:10:00,29.7,26.0,30.12,ESE,102,0.0,0.0,86,0.00,BKN,BKN,0.03,WeatherDisplay:10.37,2013-01-30 02:10:00,
2013-01-29 21:20:00,29.7,26.0,30.12,ESE,117,0.0,0.0,86,0.00,BKN,BKN,0.03,WeatherDisplay:10.37,2013-01-30 02:20:00,
2013-01-29 21:30:00,29.7,26.0,30.12,SE,131,0.0,0.0,86,0.00,BKN,BKN,0.03,WeatherDisplay:10.37,2013-01-30 02:30:00,
2013-01-29 21:40:00,29.7,26.0,30.11,ESE,116,0.0,0.0,86,0.00,BKN,BKN,0.03,WeatherDisplay:10.37,2013-01-30 02:40:00,
2013-01-29 21:50:00,29.7,26.0,30.11,ESE,102,0.0,0.0,86,0.00,BKN,BKN,0.03,WeatherDisplay:10.37,2013-01-30 02:50:00,
2013-01-29 22:00:00,29.7,26.0,30.11,East,85,0.0,0.0,86,0.00,BKN,BKN,0.03,WeatherDisplay:10.37,2013-01-30 03:00:00,
2013-01-29 22:10:00,29.7,26.3,30.11,East,79,0.0,0.0,87,0.00,BKN,BKN,0.03,WeatherDisplay:10.37,2013-01-30 03:10:00,
2013-01-29 22:20:00,29.7,26.3,30.10,East,79,0.0,0.0,87,0.00,BKN,BKN,0.03,WeatherDisplay:10.37,2013-01-30 03:20:00,
2013-01-29 22:30:00,29.7,26.3,30.10,ENE,71,0.0,0.0,87,0.00,BKN,BKN,0.03,WeatherDisplay:10.37,2013-01-30 03:30:00,
2013-01-29 22:40:00,29.7,26.3,30.10,East,79,0.0,0.0,87,0.00,BKN,BKN,0.03,WeatherDisplay:10.37,2013-01-30 03:40:00,
2013-01-29 22:50:00,29.7,26.3,30.09,SE,131,0.0,0.0,87,0.00,BKN,BKN,0.03,WeatherDisplay:10.37,2013-01-30 03:50:00,
2013-01-29 23:00:00,29.7,26.3,30.08,SE,136,0.0,0.0,87,0.00,BKN,BKN,0.03,WeatherDisplay:10.37,2013-01-30 04:00:00,
2013-01-29 23:10:00,29.7,26.3,30.09,ESE,102,0.0,0.0,87,0.00,BKN,BKN,0.03,WeatherDisplay:10.37,2013-01-30 04:10:00,
2013-01-29 23:20:00,29.7,26.3,30.09,ESE,102,0.0,0.0,87,0.00,BKN,BKN,0.03,WeatherDisplay:10.37,2013-01-30 04:20:00,
2013-01-29 23:30:00,29.7,26.3,30.09,East,91,0.0,0.0,87,0.00,BKN,BKN,0.03,WeatherDisplay:10.37,2013-01-30 04:30:00,
2013-01-29 23:40:00,29.8,26.4,30.09,ESE,115,0.0,0.0,87,0.00,BKN,BKN,0.03,WeatherDisplay:10.37,2013-01-30 04:40:00,
2013-01-29 23:50:00,29.8,26.4,30.11,East,86,0.0,0.0,87,0.00,BKN,BKN,0.03,WeatherDisplay:10.37,2013-01-30 04:50:00,